Time;durP1;ratioP1;P1;durP2;ratioP2;P2;SDS_P1;SDS_P2;PMS_P1;PMS_P2;Temp;Humidity;BMP_temperature;BMP_pressure;BME280_temperature;BME280_humidity;BME280_pressure;Samples;Min_cycle;Max_cycle;Signal;HPM_P1;HPM_P2
2023/05/04 00:00:06;;;;;;;15.68;10.75;;;;;;;12.30;100.00;100301.84;4485743;31;32624;-81
2023/05/04 00:02:52;;;;;;;15.05;10.43;;;;;;;12.04;100.00;100296.84;4482192;31;35232;-80
2023/05/04 00:05:39;;;;;;;14.87;10.55;;;;;;;12.02;100.00;100298.28;4487701;31;34280;-81
2023/05/04 00:08:26;;;;;;;13.15;9.40;;;;;;;12.45;100.00;100289.72;4473314;31;33224;-80
2023/05/04 00:11:12;;;;;;;14.25;10.30;;;;;;;12.65;100.00;100282.94;4485580;31;33437;-81
2023/05/04 00:13:59;;;;;;;14.57;9.98;;;;;;;12.09;100.00;100283.00;4495719;31;34179;-80
2023/05/04 00:16:45;;;;;;;14.60;9.75;;;;;;;12.17;100.00;100284.22;4493541;31;34508;-80
2023/05/04 00:19:38;;;;;;;14.48;9.57;;;;;;;12.47;100.00;100274.53;4493126;31;34999;-81
2023/05/04 00:22:25;;;;;;;13.33;9.70;;;;;;;12.77;100.00;100269.47;4486926;31;34213;-80
2023/05/04 00:25:12;;;;;;;14.05;9.57;;;;;;;12.42;100.00;100273.84;4493502;31;34068;-81
2023/05/04 00:27:58;;;;;;;14.40;10.32;;;;;;;13.11;100.00;100262.62;4502738;31;34311;-80
2023/05/04 00:30:44;;;;;;;12.98;9.57;;;;;;;12.15;100.00;100264.47;4503201;31;34281;-80
2023/05/04 00:33:31;;;;;;;13.95;9.93;;;;;;;12.56;100.00;100274.63;4483403;31;36489;-79
2023/05/04 00:36:17;;;;;;;13.40;9.77;;;;;;;12.92;100.00;100252.62;4484127;31;34300;-80
2023/05/04 00:39:05;;;;;;;13.27;9.85;;;;;;;13.30;100.00;100251.47;4498830;31;34130;-80
2023/05/04 00:41:51;;;;;;;15.55;10.60;;;;;;;12.36;100.00;100268.44;4489557;31;31424;-79
2023/05/04 00:44:40;;;;;;;16.67;10.73;;;;;;;12.43;100.00;100261.72;4496422;31;34474;-80
2023/05/04 00:47:28;;;;;;;14.00;10.45;;;;;;;12.52;100.00;100266.19;4497216;31;34108;-79
2023/05/04 00:50:15;;;;;;;13.95;10.00;;;;;;;13.23;100.00;100255.44;4484338;31;34205;-79
2023/05/04 00:53:06;;;;;;;14.60;10.30;;;;;;;13.18;100.00;100257.50;4477671;31;33818;-80
2023/05/04 00:55:53;;;;;;;13.77;10.15;;;;;;;11.86;100.00;100262.84;4486716;31;34096;-79
2023/05/04 00:58:39;;;;;;;13.70;10.32;;;;;;;12.38;100.00;100268.94;4500386;31;35579;-80
2023/05/04 01:01:26;;;;;;;13.40;10.27;;;;;;;12.32;100.00;100258.34;4500960;31;33625;-80
2023/05/04 01:04:12;;;;;;;14.07;10.23;;;;;;;12.08;100.00;100259.41;4486602;31;32178;-80
2023/05/04 01:07:19;;;;;;;13.68;9.93;;;;;;;12.02;100.00;100260.63;4495723;31;34473;-80
2023/05/04 01:10:18;;;;;;;15.43;10.10;;;;;;;12.29;100.00;100258.97;4485950;31;33920;-80
2023/05/04 01:13:08;;;;;;;13.47;9.30;;;;;;;13.33;100.00;100254.37;4484823;31;33715;-79
2023/05/04 01:15:54;;;;;;;13.62;9.50;;;;;;;13.61;100.00;100243.22;4498177;31;33697;-80
2023/05/04 01:18:41;;;;;;;12.60;8.75;;;;;;;13.60;100.00;100242.38;4499410;31;34213;-80
2023/05/04 01:21:28;;;;;;;13.50;9.05;;;;;;;14.07;100.00;100233.66;4486149;31;34030;-80
2023/05/04 01:24:14;;;;;;;13.37;8.90;;;;;;;14.21;100.00;100244.56;4501750;31;34629;-80
2023/05/04 01:27:15;;;;;;;12.23;8.63;;;;;;;13.94;100.00;100243.66;4502723;31;34471;-80
2023/05/04 01:30:06;;;;;;;13.45;8.63;;;;;;;14.26;100.00;100242.47;4479344;31;34271;-80
2023/05/04 01:32:53;;;;;;;12.15;9.10;;;;;;;14.25;100.00;100238.06;4505366;31;35123;-80
2023/05/04 01:35:40;;;;;;;12.57;8.80;;;;;;;14.18;100.00;100237.75;4500250;31;33816;-81
2023/05/04 01:38:27;;;;;;;14.13;9.52;;;;;;;14.27;100.00;100235.81;4500779;31;32395;-80
2023/05/04 01:41:13;;;;;;;14.80;9.70;;;;;;;12.55;100.00;100254.56;4487710;31;34830;-79
2023/05/04 01:44:00;;;;;;;13.67;9.63;;;;;;;12.87;100.00;100252.75;4493107;31;35355;-80
2023/05/04 01:46:47;;;;;;;13.88;9.20;;;;;;;13.53;100.00;100246.72;4499686;31;34434;-80
2023/05/04 01:49:33;;;;;;;11.98;8.88;;;;;;;13.70;100.00;100244.06;4502871;31;34257;-80
2023/05/04 01:52:20;;;;;;;12.20;8.43;;;;;;;14.34;100.00;100233.41;4493471;31;34061;-79
2023/05/04 01:55:06;;;;;;;10.95;7.90;;;;;;;14.67;100.00;100234.94;4492468;31;35089;-80
2023/05/04 01:57:53;;;;;;;11.40;8.30;;;;;;;14.55;100.00;100227.31;4500346;31;34030;-79
2023/05/04 02:00:40;;;;;;;10.57;7.90;;;;;;;14.69;100.00;100225.22;4502233;31;33560;-79
2023/05/04 02:03:27;;;;;;;10.85;7.70;;;;;;;15.00;100.00;100221.47;4504255;31;34316;-79
2023/05/04 02:06:13;;;;;;;11.10;7.80;;;;;;;14.95;100.00;100224.38;4487314;31;34314;-80
2023/05/04 02:08:59;;;;;;;13.73;8.82;;;;;;;14.44;100.00;100225.97;4497059;31;33411;-80
2023/05/04 02:11:45;;;;;;;15.68;11.00;;;;;;;13.10;100.00;100228.00;4498653;31;33073;-79
2023/05/04 02:14:32;;;;;;;17.85;13.10;;;;;;;12.40;100.00;100238.41;4491659;31;34406;-79
2023/05/04 02:17:18;;;;;;;18.45;12.50;;;;;;;11.42;100.00;100252.41;4500779;31;34664;-79
2023/05/04 02:20:05;;;;;;;16.58;11.90;;;;;;;12.22;100.00;100253.09;4491440;31;34301;-79
2023/05/04 02:22:53;;;;;;;16.80;12.50;;;;;;;12.44;100.00;100236.69;4501735;31;33757;-79
2023/05/04 02:25:42;;;;;;;16.37;12.55;;;;;;;12.66;100.00;100235.06;4498556;31;33900;-80
2023/05/04 02:28:28;;;;;;;17.93;12.73;;;;;;;11.49;100.00;100247.31;4487465;31;34963;-79
2023/05/04 02:31:14;;;;;;;14.75;11.35;;;;;;;12.25;100.00;100249.72;4498923;31;33957;-79
2023/05/04 02:34:01;;;;;;;13.88;10.05;;;;;;;13.18;100.00;100230.00;4501367;31;33240;-80
2023/05/04 02:36:48;;;;;;;17.12;10.85;;;;;;;13.28;100.00;100213.22;4497347;31;33955;-80
2023/05/04 02:39:35;;;;;;;14.52;10.65;;;;;;;12.73;100.00;100224.47;4485602;31;34387;-80
2023/05/04 02:42:21;;;;;;;14.82;11.10;;;;;;;12.34;100.00;100234.13;4496239;31;34654;-79
2023/05/04 02:45:08;;;;;;;17.75;11.90;;;;;;;12.88;100.00;100232.34;4486321;31;34104;-80
2023/05/04 02:47:55;;;;;;;19.02;13.38;;;;;;;11.43;100.00;100243.84;4503545;31;33897;-79
2023/05/04 02:50:45;;;;;;;18.60;13.25;;;;;;;11.38;100.00;100252.16;4499501;31;34287;-79
2023/05/04 02:53:31;;;;;;;19.10;13.50;;;;;;;11.52;100.00;100241.22;4488770;31;33616;-79
2023/05/04 02:56:17;;;;;;;19.23;14.17;;;;;;;11.50;100.00;100254.47;4487330;31;34485;-79
2023/05/04 02:59:04;;;;;;;18.90;13.83;;;;;;;11.06;100.00;100261.22;4488840;31;33927;-80
2023/05/04 03:01:50;;;;;;;19.47;14.00;;;;;;;11.41;100.00;100261.72;4481989;31;34977;-79
2023/05/04 03:04:37;;;;;;;22.35;14.52;;;;;;;10.96;100.00;100266.88;4486504;31;34117;-80
2023/05/04 03:07:25;;;;;;;22.23;13.93;;;;;;;11.52;100.00;100259.62;4476761;31;33042;-80
2023/05/04 03:10:11;;;;;;;20.97;13.87;;;;;;;11.57;100.00;100271.34;4486498;31;34507;-80
2023/05/04 03:13:02;;;;;;;19.02;13.70;;;;;;;11.69;100.00;100248.88;4485008;31;34132;-80
2023/05/04 03:15:49;;;;;;;18.45;13.13;;;;;;;12.22;100.00;100247.59;4483285;31;34939;-80
2023/05/04 03:18:35;;;;;;;18.98;12.90;;;;;;;12.60;100.00;100254.44;4485990;31;33427;-80
2023/05/04 03:21:22;;;;;;;17.87;13.32;;;;;;;12.31;100.00;100246.56;4483307;31;36498;-80
2023/05/04 03:24:10;;;;;;;17.87;13.07;;;;;;;12.11;100.00;100256.03;4485626;31;33865;-80
2023/05/04 03:26:56;;;;;;;18.90;13.13;;;;;;;12.14;100.00;100249.12;4480345;31;33667;-80
2023/05/04 03:29:43;;;;;;;17.87;12.07;;;;;;;12.49;100.00;100252.22;4490538;31;34336;-80
2023/05/04 03:32:29;;;;;;;19.98;13.73;;;;;;;12.41;100.00;100248.28;4498262;31;33854;-80
2023/05/04 03:35:16;;;;;;;18.55;13.05;;;;;;;12.19;100.00;100260.00;4494708;31;33947;-79
2023/05/04 03:38:10;;;;;;;17.50;12.60;;;;;;;12.36;100.00;100259.38;4496238;31;33725;-80
2023/05/04 03:40:56;;;;;;;18.80;13.32;;;;;;;12.32;100.00;100252.88;4495082;31;33426;-80
2023/05/04 03:43:43;;;;;;;21.62;14.45;;;;;;;11.32;100.00;100260.81;4491735;31;34138;-81
2023/05/04 03:46:29;;;;;;;21.00;13.32;;;;;;;12.13;100.00;100264.81;4485082;31;34062;-80
2023/05/04 03:49:16;;;;;;;19.52;13.32;;;;;;;12.12;100.00;100257.69;4495831;31;33830;-81
2023/05/04 03:52:02;;;;;;;18.87;12.88;;;;;;;12.18;100.00;100265.81;4483609;31;33521;-80
2023/05/04 03:54:49;;;;;;;18.05;12.63;;;;;;;12.50;100.00;100265.66;4480983;31;35120;-81
2023/05/04 03:57:35;;;;;;;18.15;12.88;;;;;;;12.56;100.00;100260.87;4496998;31;34209;-82
2023/05/04 04:00:21;;;;;;;19.48;13.40;;;;;;;11.98;100.00;100265.13;4497850;31;33920;-80
2023/05/04 04:03:08;;;;;;;19.33;12.97;;;;;;;12.76;100.00;100274.16;4502884;31;33907;-81
2023/05/04 04:05:56;;;;;;;20.02;13.70;;;;;;;12.28;100.00;100274.66;4472433;31;33805;-80
2023/05/04 04:08:43;;;;;;;20.80;13.97;;;;;;;12.00;100.00;100265.59;4481965;31;35151;-81
2023/05/04 04:11:29;;;;;;;20.33;14.00;;;;;;;11.63;100.00;100283.84;4496355;31;32276;-81
2023/05/04 04:14:16;;;;;;;19.97;13.90;;;;;;;12.07;100.00;100278.94;4492716;31;33396;-81
2023/05/04 04:17:02;;;;;;;21.03;14.40;;;;;;;11.59;100.00;100279.28;4493433;31;33563;-81
2023/05/04 04:19:48;;;;;;;20.67;14.37;;;;;;;11.42;100.00;100290.81;4478581;31;34581;-81
2023/05/04 04:22:35;;;;;;;21.58;14.80;;;;;;;11.22;100.00;100292.78;4495452;31;33682;-81
2023/05/04 04:25:23;;;;;;;21.23;14.77;;;;;;;11.51;100.00;100296.44;4491639;31;33045;-81
2023/05/04 04:28:09;;;;;;;22.13;14.77;;;;;;;11.35;100.00;100298.59;4487243;31;33927;-81
2023/05/04 04:30:58;;;;;;;20.37;13.40;;;;;;;11.97;100.00;100296.44;4483914;31;34205;-82
2023/05/04 04:33:47;;;;;;;17.70;12.48;;;;;;;12.00;100.00;100295.81;4472742;31;33728;-81
2023/05/04 04:36:33;;;;;;;18.23;12.60;;;;;;;11.65;100.00;100289.03;4490539;31;33183;-82
2023/05/04 04:39:22;;;;;;;18.47;12.60;;;;;;;12.26;100.00;100282.38;4494132;31;33435;-81
2023/05/04 04:42:09;;;;;;;17.27;12.15;;;;;;;12.28;100.00;100282.09;4471059;31;34962;-82
2023/05/04 04:44:56;;;;;;;16.50;11.93;;;;;;;12.69;100.00;100286.69;4484289;31;33600;-80
2023/05/04 04:47:43;;;;;;;14.77;10.88;;;;;;;12.05;100.00;100275.69;4492301;31;34298;-80
2023/05/04 04:50:31;;;;;;;15.77;11.45;;;;;;;12.02;100.00;100284.53;4495662;31;33910;-80
2023/05/04 04:53:17;;;;;;;14.38;9.73;;;;;;;12.56;100.00;100286.44;4481005;31;34073;-80
2023/05/04 04:56:08;;;;;;;13.52;9.55;;;;;;;12.73;100.00;100284.97;4496279;31;34101;-80
2023/05/04 04:58:55;;;;;;;12.60;8.00;;;;;;;12.90;100.00;100278.81;4494291;31;33262;-80
2023/05/04 05:01:42;;;;;;;12.23;8.57;;;;;;;13.00;100.00;100273.84;4492810;31;33599;-82
2023/05/04 05:04:29;;;;;;;11.80;7.97;;;;;;;12.78;100.00;100285.66;4490781;31;34108;-79
2023/05/04 05:07:15;;;;;;;10.73;6.65;;;;;;;13.45;100.00;100279.38;4490662;31;33442;-80
2023/05/04 05:10:02;;;;;;;10.18;7.22;;;;;;;13.39;100.00;100283.41;4494435;31;33298;-80
2023/05/04 05:12:49;;;;;;;9.18;6.85;;;;;;;13.92;100.00;100270.75;4479946;31;33880;-80
2023/05/04 05:15:40;;;;;;;9.63;6.50;;;;;;;13.62;100.00;100269.62;4481634;31;34014;-80
2023/05/04 05:18:28;;;;;;;7.63;5.30;;;;;;;14.19;100.00;100275.19;4479367;31;33651;-80
2023/05/04 05:21:14;;;;;;;8.73;5.80;;;;;;;14.75;100.00;100287.34;4481055;31;33884;-80
2023/05/04 05:24:01;;;;;;;8.33;5.30;;;;;;;15.02;100.00;100275.16;4479731;31;34320;-81
2023/05/04 05:26:48;;;;;;;9.90;5.60;;;;;;;14.45;100.00;100278.00;4493852;31;34153;-81
2023/05/04 05:29:34;;;;;;;8.07;4.90;;;;;;;14.58;100.00;100279.06;4469860;31;33724;-82
2023/05/04 05:32:20;;;;;;;8.48;5.00;;;;;;;15.44;100.00;100275.44;4488423;31;32849;-82
2023/05/04 05:35:08;;;;;;;8.98;4.75;;;;;;;15.85;100.00;100267.72;4491492;31;32595;-82
2023/05/04 05:37:54;;;;;;;6.82;4.22;;;;;;;15.71;100.00;100273.47;4476098;31;33710;-82
2023/05/04 05:40:41;;;;;;;6.30;3.90;;;;;;;15.77;100.00;100265.78;4481890;31;33664;-82
2023/05/04 05:43:27;;;;;;;7.40;4.12;;;;;;;15.33;100.00;100278.88;4480033;31;33173;-82
2023/05/04 05:46:14;;;;;;;6.80;3.90;;;;;;;15.02;100.00;100275.16;4479383;31;34693;-82
2023/05/04 05:49:01;;;;;;;5.78;3.92;;;;;;;14.26;100.00;100283.81;4492281;31;33618;-82
2023/05/04 05:51:47;;;;;;;5.87;3.72;;;;;;;13.94;100.00;100274.81;4488980;31;34605;-82
2023/05/04 05:54:34;;;;;;;5.95;4.20;;;;;;;14.44;100.00;100283.88;4493899;31;34282;-82
2023/05/04 05:57:20;;;;;;;6.45;4.07;;;;;;;14.52;100.00;100285.88;4465030;31;33782;-82
2023/05/04 06:00:07;;;;;;;7.35;3.53;;;;;;;14.90;100.00;100288.00;4490223;31;34168;-82
2023/05/04 06:02:57;;;;;;;6.35;3.70;;;;;;;14.16;100.00;100286.84;4479194;31;33933;-83
2023/05/04 06:05:43;;;;;;;5.40;3.30;;;;;;;14.28;100.00;100292.56;4492918;31;33557;-82
2023/05/04 06:08:30;;;;;;;5.43;3.20;;;;;;;13.58;100.00;100293.41;4492901;31;33782;-82
2023/05/04 06:11:17;;;;;;;6.68;3.28;;;;;;;14.71;100.00;100286.34;4470008;31;35057;-82
2023/05/04 06:14:09;;;;;;;5.57;3.40;;;;;;;14.13;100.00;100287.50;4480937;31;33325;-84
2023/05/04 06:16:56;;;;;;;5.87;3.10;;;;;;;14.59;100.00;100283.44;4473724;31;33189;-83
2023/05/04 06:19:44;;;;;;;5.63;3.50;;;;;;;15.18;100.00;100294.00;4456422;31;34606;-83
2023/05/04 06:22:31;;;;;;;4.87;3.35;;;;;;;15.62;100.00;100291.97;4465620;31;34668;-83
2023/05/04 06:25:18;;;;;;;4.97;3.00;;;;;;;15.16;100.00;100283.28;4490593;31;34568;-83
2023/05/04 06:28:05;;;;;;;4.47;2.97;;;;;;;14.87;100.00;100288.66;4480068;31;33155;-83
2023/05/04 06:30:51;;;;;;;4.10;2.57;;;;;;;15.46;100.00;100297.22;4480404;31;33753;-84
2023/05/04 06:33:37;;;;;;;4.43;2.50;;;;;;;16.20;100.00;100296.03;4459925;31;34126;-82
2023/05/04 06:36:26;;;;;;;4.03;1.90;;;;;;;16.05;100.00;100293.81;4476917;31;33711;-83
2023/05/04 06:39:14;;;;;;;3.70;2.30;;;;;;;16.91;100.00;100298.06;4472543;31;33372;-84
2023/05/04 06:42:01;;;;;;;3.30;1.98;;;;;;;16.94;100.00;100294.63;4454167;31;33407;-84
2023/05/04 06:44:52;;;;;;;5.37;2.10;;;;;;;17.02;100.00;100306.78;4455272;31;33704;-84
2023/05/04 06:47:39;;;;;;;4.95;2.42;;;;;;;16.20;100.00;100298.81;4475111;31;33286;-83
2023/05/04 06:50:26;;;;;;;3.30;2.10;;;;;;;16.90;100.00;100301.16;4469639;31;32840;-81
2023/05/04 06:53:12;;;;;;;4.40;2.65;;;;;;;17.02;100.00;100299.28;4480208;31;33838;-83
2023/05/04 06:55:59;;;;;;;4.50;2.27;;;;;;;17.19;100.00;100294.72;4471170;31;34513;-83
2023/05/04 06:58:45;;;;;;;4.55;2.70;;;;;;;17.09;100.00;100307.84;4476899;31;33922;-84
2023/05/04 07:01:32;;;;;;;3.63;2.63;;;;;;;17.52;99.32;100303.06;4461986;31;33338;-84
2023/05/04 07:04:22;;;;;;;4.75;2.50;;;;;;;16.24;100.00;100307.22;4477129;31;33354;-83
2023/05/04 07:07:08;;;;;;;4.30;2.45;;;;;;;15.98;100.00;100304.59;4480196;31;35212;-78
2023/05/04 07:09:55;;;;;;;5.37;2.70;;;;;;;15.66;100.00;100306.78;4500385;31;34326;-77
2023/05/04 07:12:42;;;;;;;4.47;2.40;;;;;;;15.59;100.00;100303.69;4497675;31;33365;-76
2023/05/04 07:15:28;;;;;;;4.83;2.50;;;;;;;16.46;100.00;100298.66;4489187;31;34787;-77
2023/05/04 07:18:15;;;;;;;3.78;2.53;;;;;;;16.62;100.00;100301.63;4485287;32;34172;-77
2023/05/04 07:21:01;;;;;;;3.90;2.58;;;;;;;16.38;100.00;100302.28;4485217;32;33862;-77
2023/05/04 07:24:08;;;;;;;3.67;2.30;;;;;;;15.98;100.00;100301.81;4476766;32;33242;-80
2023/05/04 07:26:54;;;;;;;5.03;2.60;;;;;;;16.19;100.00;100303.53;4475275;32;33843;-80
2023/05/04 07:29:40;;;;;;;4.47;2.53;;;;;;;16.63;100.00;100306.84;4486952;32;34456;-79
2023/05/04 07:32:27;;;;;;;4.20;2.55;;;;;;;15.59;100.00;100310.00;4473686;32;33845;-78
2023/05/04 07:35:14;;;;;;;4.12;2.67;;;;;;;15.63;100.00;100311.00;4487832;31;34264;-82
2023/05/04 07:38:00;;;;;;;6.45;2.72;;;;;;;15.84;100.00;100310.31;4488421;31;34779;-81
2023/05/04 07:40:46;;;;;;;4.15;2.22;;;;;;;15.86;100.00;100308.03;4497310;31;34166;-82
2023/05/04 07:43:32;;;;;;;3.83;2.40;;;;;;;17.04;97.51;100313.56;4490942;31;34035;-82
2023/05/04 07:46:24;;;;;;;5.95;2.37;;;;;;;16.90;99.72;100313.03;4499496;31;35261;-74
2023/05/04 07:49:18;;;;;;;3.58;2.40;;;;;;;16.44;100.00;100306.47;4501205;31;33815;-76
2023/05/04 07:52:04;;;;;;;3.90;2.58;;;;;;;16.57;96.38;100299.09;4501037;31;34204;-76
2023/05/04 07:54:52;;;;;;;4.50;2.20;;;;;;;16.45;98.40;100304.50;4500845;31;33939;-77
2023/05/04 07:57:38;;;;;;;4.20;2.40;;;;;;;16.41;100.00;100302.41;4489118;31;33510;-76
2023/05/04 08:00:25;;;;;;;6.00;2.53;;;;;;;16.48;100.00;100304.69;4483040;31;36839;-76
2023/05/04 08:03:11;;;;;;;5.28;2.80;;;;;;;17.42;93.70;100307.06;4489276;31;34044;-77
2023/05/04 08:05:58;;;;;;;4.70;2.70;;;;;;;17.89;92.39;100301.22;4500922;31;34549;-77
2023/05/04 08:08:45;;;;;;;4.97;2.47;;;;;;;18.25;85.69;100299.62;4501707;31;34274;-77
2023/05/04 08:11:33;;;;;;;4.72;2.85;;;;;;;18.70;88.97;100293.12;4501171;31;34790;-77
2023/05/04 08:14:19;;;;;;;3.78;2.60;;;;;;;18.88;87.28;100300.03;4500748;31;35189;-77
2023/05/04 08:17:05;;;;;;;4.62;2.50;;;;;;;19.61;84.94;100312.03;4500949;31;33835;-77
2023/05/04 08:19:52;;;;;;;4.28;2.75;;;;;;;19.88;82.02;100304.03;4489730;31;33269;-78
2023/05/04 08:22:38;;;;;;;5.95;2.80;;;;;;;19.97;79.08;100304.66;4488159;31;33746;-78
2023/05/04 08:25:24;;;;;;;4.85;3.03;;;;;;;20.33;86.16;100306.38;4499639;31;34181;-77
2023/05/04 08:28:11;;;;;;;4.50;2.87;;;;;;;18.82;81.02;100307.00;4488840;31;34606;-77
2023/05/04 08:30:57;;;;;;;6.65;3.08;;;;;;;19.43;82.61;100317.09;4500093;31;34182;-77
2023/05/04 08:33:45;;;;;;;4.45;2.95;;;;;;;19.90;82.04;100319.19;4499382;31;34783;-77
2023/05/04 08:36:31;;;;;;;4.75;2.90;;;;;;;20.25;76.58;100314.91;4500599;31;35178;-77
2023/05/04 08:39:18;;;;;;;4.23;2.90;;;;;;;19.73;76.86;100327.88;4500458;31;33777;-77
2023/05/04 08:42:04;;;;;;;5.32;3.37;;;;;;;20.33;76.61;100323.06;4495210;31;33364;-78
2023/05/04 08:44:51;;;;;;;5.25;2.90;;;;;;;20.79;77.34;100314.22;4476843;32;33389;-79
2023/05/04 08:47:41;;;;;;;4.17;2.90;;;;;;;20.50;72.53;100310.75;4489397;31;35092;-77
2023/05/04 08:50:27;;;;;;;3.55;2.50;;;;;;;19.78;75.64;100308.16;4489008;31;34875;-78
2023/05/04 08:53:17;;;;;;;5.10;2.80;;;;;;;19.58;79.83;100321.09;4488015;31;33451;-78
2023/05/04 08:56:08;;;;;;;4.07;2.70;;;;;;;18.78;82.76;100306.06;4486355;31;33842;-78
2023/05/04 08:59:00;;;;;;;5.85;3.00;;;;;;;19.69;78.35;100315.84;4485208;31;34142;-78
2023/05/04 09:01:50;;;;;;;4.57;2.60;;;;;;;20.09;76.27;100307.34;4475047;31;33817;-78
2023/05/04 09:04:36;;;;;;;4.55;3.10;;;;;;;20.42;77.83;100308.94;4487899;31;33304;-77
2023/05/04 09:07:22;;;;;;;6.68;2.80;;;;;;;21.11;71.42;100310.12;4500125;31;33886;-78
2023/05/04 09:10:09;;;;;;;5.22;3.05;;;;;;;19.27;77.38;100317.06;4495036;31;35151;-78
2023/05/04 09:12:55;;;;;;;4.40;2.60;;;;;;;18.24;80.89;100303.53;4482152;31;33693;-78
2023/05/04 09:15:41;;;;;;;3.93;2.40;;;;;;;19.49;81.23;100312.09;4485729;31;33382;-78
2023/05/04 09:18:35;;;;;;;5.40;3.10;;;;;;;19.75;78.02;100314.41;4491310;31;33740;-78
2023/05/04 09:21:32;;;;;;;6.95;4.43;;;;;;;19.01;85.89;100311.94;4482967;31;34040;-78
2023/05/04 09:24:26;;;;;;;6.00;3.40;;;;;;;18.32;93.29;100310.12;4482222;31;33718;-77
2023/05/04 09:27:36;;;;;;;4.45;3.22;;;;;;;18.71;93.11;100305.84;4487463;31;33359;-77
2023/05/04 09:30:22;;;;;;;5.05;3.30;;;;;;;19.03;82.70;100301.28;4487454;31;34614;-77
2023/05/04 09:33:09;;;;;;;5.37;3.00;;;;;;;18.51;89.63;100310.38;4489143;31;34149;-77
2023/05/04 09:35:57;;;;;;;5.40;3.28;;;;;;;19.11;86.25;100307.84;4463772;32;33823;-78
2023/05/04 09:38:44;;;;;;;5.20;3.08;;;;;;;18.68;89.26;100306.53;4458723;32;34319;-77
2023/05/04 09:41:31;;;;;;;5.97;3.40;;;;;;;18.77;87.96;100298.91;4461052;32;33453;-78
2023/05/04 09:44:20;;;;;;;5.05;3.10;;;;;;;19.24;83.23;100305.81;4467254;32;35090;-77
2023/05/04 09:47:07;;;;;;;3.95;2.90;;;;;;;18.46;88.64;100293.94;4466217;32;33953;-76
2023/05/04 09:49:54;;;;;;;6.97;3.45;;;;;;;18.87;84.40;100304.00;4466606;32;33088;-77
2023/05/04 09:52:41;;;;;;;5.32;3.35;;;;;;;18.51;88.21;100298.47;4457951;32;34663;-76
2023/05/04 09:55:28;;;;;;;5.50;3.13;;;;;;;18.91;85.60;100297.72;4458484;32;34158;-77
2023/05/04 09:58:17;;;;;;;4.72;3.33;;;;;;;18.37;88.60;100298.81;4455639;32;33167;-78
2023/05/04 10:01:04;;;;;;;8.43;5.03;;;;;;;18.90;86.47;100296.09;4458599;32;34282;-77
2023/05/04 10:03:52;;;;;;;10.40;6.57;;;;;;;19.41;91.33;100293.59;4455239;32;33840;-78
2023/05/04 10:06:38;;;;;;;8.43;5.73;;;;;;;18.38;98.96;100287.34;4456827;32;34985;-78
2023/05/04 10:09:29;;;;;;;8.93;6.20;;;;;;;19.42;98.53;100290.47;4456435;32;33599;-77
2023/05/04 10:12:15;;;;;;;10.53;6.47;;;;;;;19.03;100.00;100289.34;4458052;32;33422;-77
2023/05/04 10:15:06;;;;;;;8.73;6.47;;;;;;;18.88;100.00;100279.81;4453580;32;33970;-79
2023/05/04 10:18:24;;;;;;;8.20;5.68;;;;;;;19.92;99.47;100275.16;4454367;32;33605;-79
2023/05/04 10:21:25;;;;;;;8.57;5.90;;;;;;;20.89;90.80;100274.66;4452823;32;34097;-78
2023/05/04 10:24:39;;;;;;;10.00;5.72;;;;;;;20.38;87.69;100280.25;4452697;32;33195;-78
2023/05/04 10:27:48;;;;;;;7.20;5.00;;;;;;;19.86;89.95;100278.53;4457830;32;33619;-78
2023/05/04 10:30:35;;;;;;;7.35;5.40;;;;;;;20.61;84.66;100267.28;4463402;32;33945;-78
2023/05/04 10:33:21;;;;;;;7.22;5.50;;;;;;;18.91;89.79;100259.66;4467668;32;33741;-77
2023/05/04 10:36:08;;;;;;;7.17;5.30;;;;;;;19.67;87.93;100263.38;4459598;32;33255;-78
2023/05/04 10:38:55;;;;;;;7.27;4.80;;;;;;;20.88;81.51;100259.09;4457672;32;34358;-78
2023/05/04 10:41:41;;;;;;;7.15;5.20;;;;;;;20.47;84.44;100261.37;4462912;32;34332;-78
2023/05/04 10:44:46;;;;;;;7.70;5.35;;;;;;;21.34;82.20;100259.22;4463207;32;34029;-78
2023/05/04 10:47:34;;;;;;;7.10;5.10;;;;;;;21.16;76.67;100255.28;4449363;32;34376;-78
2023/05/04 10:50:21;;;;;;;7.20;5.03;;;;;;;21.22;75.07;100257.41;4471545;32;33739;-78
2023/05/04 10:53:07;;;;;;;8.57;5.75;;;;;;;20.91;84.66;100252.78;4460128;32;34080;-79
2023/05/04 10:55:54;;;;;;;7.95;4.50;;;;;;;20.63;85.05;100244.63;4455708;32;33723;-80
2023/05/04 10:58:40;;;;;;;6.40;4.82;;;;;;;22.47;75.67;100238.47;4442058;32;34274;-79
2023/05/04 11:01:27;;;;;;;9.05;5.55;;;;;;;22.60;77.61;100229.50;4463307;32;33825;-79
2023/05/04 11:04:20;;;;;;;8.68;5.28;;;;;;;22.52;70.24;100227.78;4471709;32;34768;-79
2023/05/04 11:07:07;;;;;;;8.10;4.90;;;;;;;21.83;71.31;100233.47;4465053;32;33511;-79
2023/05/04 11:09:54;;;;;;;9.32;5.25;;;;;;;21.47;74.74;100230.03;4461348;32;33265;-79
2023/05/04 11:12:41;;;;;;;6.40;4.75;;;;;;;22.14;66.75;100229.59;4462480;32;34784;-79
2023/05/04 11:15:29;;;;;;;6.63;4.40;;;;;;;22.07;67.94;100220.28;4461475;32;33784;-78
2023/05/04 11:18:25;;;;;;;6.50;4.97;;;;;;;20.95;75.46;100219.47;4459415;32;33408;-77
2023/05/04 11:21:12;;;;;;;8.73;5.50;;;;;;;21.00;73.10;100219.16;4462385;32;34111;-77
2023/05/04 11:23:59;;;;;;;8.13;5.62;;;;;;;20.95;77.21;100211.91;4459810;32;33759;-77
2023/05/04 11:26:49;;;;;;;7.43;5.20;;;;;;;20.87;75.09;100215.72;4449078;32;35114;-77
2023/05/04 11:29:35;;;;;;;9.17;5.40;;;;;;;20.22;77.88;100211.50;4464924;32;34460;-77
2023/05/04 11:32:32;;;;;;;9.95;5.50;;;;;;;19.73;87.20;100216.66;4453233;32;33223;-77
2023/05/04 11:35:22;;;;;;;10.13;7.05;;;;;;;19.23;92.67;100210.56;4449342;32;33884;-78
2023/05/04 11:38:08;;;;;;;9.03;5.73;;;;;;;18.54;99.31;100211.75;4466681;32;34118;-78
2023/05/04 11:40:55;;;;;;;9.98;7.07;;;;;;;19.19;98.07;100206.09;4460237;32;33923;-78
2023/05/04 11:43:43;;;;;;;11.23;7.30;;;;;;;19.40;98.21;100208.62;4461707;32;33196;-76
2023/05/04 11:46:31;;;;;;;10.32;6.60;;;;;;;19.27;97.89;100210.69;4463528;32;32083;-77
2023/05/04 11:49:18;;;;;;;9.82;7.12;;;;;;;19.14;100.00;100207.16;4464063;32;34979;-77
2023/05/04 11:52:08;;;;;;;9.10;6.78;;;;;;;19.37;99.22;100209.34;4466616;32;33506;-78
2023/05/04 11:54:58;;;;;;;10.30;6.70;;;;;;;19.52;98.68;100202.97;4463017;32;33303;-77
2023/05/04 11:57:57;;;;;;;10.00;7.20;;;;;;;18.97;100.00;100204.69;4447576;32;33450;-79
2023/05/04 12:00:45;;;;;;;11.82;7.20;;;;;;;18.51;100.00;100204.13;4456240;32;35084;-78
2023/05/04 12:03:33;;;;;;;9.98;7.35;;;;;;;18.44;100.00;100201.91;4454347;32;33655;-78
2023/05/04 12:06:32;;;;;;;11.27;7.30;;;;;;;18.26;100.00;100195.03;4453390;32;33959;-78
2023/05/04 12:09:19;;;;;;;10.15;7.05;;;;;;;18.09;100.00;100205.22;4458399;32;32634;-78
2023/05/04 12:12:06;;;;;;;11.77;7.60;;;;;;;18.90;100.00;100201.69;4447142;32;34160;-77
2023/05/04 12:14:55;;;;;;;10.45;7.65;;;;;;;18.59;100.00;100201.22;4460276;32;33387;-78
2023/05/04 12:17:42;;;;;;;10.95;7.30;;;;;;;18.46;100.00;100196.03;4454266;32;33797;-78
2023/05/04 12:20:30;;;;;;;11.30;7.05;;;;;;;18.43;100.00;100203.09;4456384;32;33948;-76
2023/05/04 12:23:16;;;;;;;11.53;6.97;;;;;;;18.96;100.00;100197.53;4455119;32;34556;-76
2023/05/04 12:26:03;;;;;;;9.95;6.62;;;;;;;19.30;100.00;100194.09;4453027;32;33336;-77
2023/05/04 12:28:50;;;;;;;10.75;7.18;;;;;;;19.65;100.00;100199.00;4459007;32;33026;-77
2023/05/04 12:31:37;;;;;;;7.93;6.20;;;;;;;20.00;94.95;100181.56;4453508;32;33073;-78
2023/05/04 12:34:23;;;;;;;8.95;6.35;;;;;;;20.15;95.94;100180.75;4442367;31;1007710;-77
2023/05/04 12:37:10;;;;;;;9.48;6.97;;;;;;;20.42;94.70;100172.56;4488566;31;34079;-77
2023/05/04 12:39:56;;;;;;;10.45;6.78;;;;;;;19.97;92.81;100171.97;4480817;31;33778;-78
2023/05/04 12:42:43;;;;;;;10.87;7.67;;;;;;;20.17;94.74;100181.16;4476467;31;33896;-78
2023/05/04 12:45:29;;;;;;;8.10;6.30;;;;;;;19.75;92.65;100184.56;4478244;31;34081;-78
2023/05/04 12:48:16;;;;;;;8.55;5.57;;;;;;;20.49;88.57;100186.66;4489772;31;33098;-77